sensor_id;sensor_type;location;lat;lon;timestamp;P1;durP1;ratioP1;P2;durP2;ratioP2
25752;SDS011;13600;50.816;4.416;2024-02-14T00:00:06;8.13;;;5.03;;
25752;SDS011;13600;50.816;4.416;2024-02-14T00:02:43;11.95;;;5.03;;
25752;SDS011;13600;50.816;4.416;2024-02-14T00:05:11;10.90;;;4.63;;
25752;SDS011;13600;50.816;4.416;2024-02-14T00:07:37;10.13;;;4.78;;
25752;SDS011;13600;50.816;4.416;2024-02-14T00:10:04;7.43;;;4.80;;
25752;SDS011;13600;50.816;4.416;2024-02-14T00:12:33;8.57;;;4.85;;
25752;SDS011;13600;50.816;4.416;2024-02-14T00:15:00;7.43;;;4.25;;
25752;SDS011;13600;50.816;4.416;2024-02-14T00:17:26;8.10;;;4.25;;
25752;SDS011;13600;50.816;4.416;2024-02-14T00:19:51;8.13;;;4.60;;
25752;SDS011;13600;50.816;4.416;2024-02-14T00:22:17;7.22;;;4.70;;
25752;SDS011;13600;50.816;4.416;2024-02-14T00:24:43;10.02;;;4.55;;
25752;SDS011;13600;50.816;4.416;2024-02-14T00:27:09;9.82;;;4.30;;
25752;SDS011;13600;50.816;4.416;2024-02-14T00:29:34;11.95;;;4.80;;
25752;SDS011;13600;50.816;4.416;2024-02-14T00:32:00;9.95;;;4.55;;
25752;SDS011;13600;50.816;4.416;2024-02-14T00:34:26;11.18;;;4.60;;
25752;SDS011;13600;50.816;4.416;2024-02-14T00:36:52;10.57;;;4.82;;
25752;SDS011;13600;50.816;4.416;2024-02-14T00:39:18;9.95;;;4.50;;
25752;SDS011;13600;50.816;4.416;2024-02-14T00:41:45;9.70;;;4.90;;
25752;SDS011;13600;50.816;4.416;2024-02-14T00:44:12;7.20;;;4.13;;
25752;SDS011;13600;50.816;4.416;2024-02-14T00:46:42;8.93;;;4.20;;
25752;SDS011;13600;50.816;4.416;2024-02-14T00:49:08;10.57;;;4.90;;
25752;SDS011;13600;50.816;4.416;2024-02-14T00:51:35;6.70;;;3.83;;
25752;SDS011;13600;50.816;4.416;2024-02-14T00:54:03;7.03;;;4.35;;
25752;SDS011;13600;50.816;4.416;2024-02-14T00:56:30;8.90;;;4.10;;
25752;SDS011;13600;50.816;4.416;2024-02-14T00:58:56;12.48;;;5.00;;
25752;SDS011;13600;50.816;4.416;2024-02-14T01:01:22;6.35;;;4.47;;
25752;SDS011;13600;50.816;4.416;2024-02-14T01:03:48;9.02;;;4.53;;
25752;SDS011;13600;50.816;4.416;2024-02-14T01:06:14;7.47;;;4.45;;
25752;SDS011;13600;50.816;4.416;2024-02-14T01:08:40;11.35;;;4.50;;
25752;SDS011;13600;50.816;4.416;2024-02-14T01:11:07;10.35;;;4.70;;
25752;SDS011;13600;50.816;4.416;2024-02-14T01:13:33;7.45;;;4.22;;
25752;SDS011;13600;50.816;4.416;2024-02-14T01:15:59;10.27;;;4.45;;
25752;SDS011;13600;50.816;4.416;2024-02-14T01:18:25;10.40;;;4.75;;
25752;SDS011;13600;50.816;4.416;2024-02-14T01:20:50;9.70;;;4.60;;
25752;SDS011;13600;50.816;4.416;2024-02-14T01:23:16;8.63;;;4.20;;
25752;SDS011;13600;50.816;4.416;2024-02-14T01:25:42;9.35;;;4.93;;
25752;SDS011;13600;50.816;4.416;2024-02-14T01:28:08;10.68;;;5.00;;
25752;SDS011;13600;50.816;4.416;2024-02-14T01:30:34;10.40;;;5.05;;
25752;SDS011;13600;50.816;4.416;2024-02-14T01:33:01;9.88;;;5.40;;
25752;SDS011;13600;50.816;4.416;2024-02-14T01:35:29;15.02;;;4.68;;
25752;SDS011;13600;50.816;4.416;2024-02-14T01:37:55;13.45;;;5.25;;
25752;SDS011;13600;50.816;4.416;2024-02-14T01:40:22;9.05;;;4.93;;
25752;SDS011;13600;50.816;4.416;2024-02-14T01:42:48;9.52;;;4.95;;
25752;SDS011;13600;50.816;4.416;2024-02-14T01:45:15;7.13;;;4.78;;
25752;SDS011;13600;50.816;4.416;2024-02-14T01:47:41;12.40;;;5.80;;
25752;SDS011;13600;50.816;4.416;2024-02-14T01:50:09;10.45;;;5.80;;
25752;SDS011;13600;50.816;4.416;2024-02-14T01:52:37;11.75;;;5.43;;
25752;SDS011;13600;50.816;4.416;2024-02-14T01:55:05;12.02;;;5.30;;
25752;SDS011;13600;50.816;4.416;2024-02-14T01:57:33;11.45;;;5.95;;
25752;SDS011;13600;50.816;4.416;2024-02-14T02:00:01;12.35;;;5.80;;
25752;SDS011;13600;50.816;4.416;2024-02-14T02:02:34;10.82;;;5.65;;
25752;SDS011;13600;50.816;4.416;2024-02-14T02:05:05;15.20;;;6.28;;
25752;SDS011;13600;50.816;4.416;2024-02-14T02:07:31;13.07;;;5.90;;
25752;SDS011;13600;50.816;4.416;2024-02-14T02:09:57;11.30;;;6.82;;
25752;SDS011;13600;50.816;4.416;2024-02-14T02:12:23;13.07;;;6.13;;
25752;SDS011;13600;50.816;4.416;2024-02-14T02:14:53;13.15;;;6.43;;
25752;SDS011;13600;50.816;4.416;2024-02-14T02:17:20;14.52;;;7.20;;
25752;SDS011;13600;50.816;4.416;2024-02-14T02:19:46;15.60;;;7.40;;
25752;SDS011;13600;50.816;4.416;2024-02-14T02:22:11;11.45;;;6.25;;
25752;SDS011;13600;50.816;4.416;2024-02-14T02:24:37;13.68;;;7.35;;
25752;SDS011;13600;50.816;4.416;2024-02-14T02:27:03;14.40;;;7.38;;
25752;SDS011;13600;50.816;4.416;2024-02-14T02:29:29;12.35;;;7.55;;
25752;SDS011;13600;50.816;4.416;2024-02-14T02:31:57;13.25;;;7.78;;
25752;SDS011;13600;50.816;4.416;2024-02-14T02:34:23;14.02;;;7.57;;
25752;SDS011;13600;50.816;4.416;2024-02-14T02:36:48;16.05;;;8.55;;
25752;SDS011;13600;50.816;4.416;2024-02-14T02:39:16;11.80;;;7.32;;
25752;SDS011;13600;50.816;4.416;2024-02-14T02:41:42;11.70;;;7.78;;
25752;SDS011;13600;50.816;4.416;2024-02-14T02:44:10;14.52;;;8.10;;
25752;SDS011;13600;50.816;4.416;2024-02-14T02:46:36;17.13;;;7.75;;
25752;SDS011;13600;50.816;4.416;2024-02-14T02:49:02;12.23;;;7.82;;
25752;SDS011;13600;50.816;4.416;2024-02-14T02:51:27;12.68;;;7.75;;
25752;SDS011;13600;50.816;4.416;2024-02-14T02:53:55;14.38;;;8.35;;
25752;SDS011;13600;50.816;4.416;2024-02-14T02:56:20;15.73;;;8.30;;
25752;SDS011;13600;50.816;4.416;2024-02-14T02:58:47;15.18;;;8.13;;
25752;SDS011;13600;50.816;4.416;2024-02-14T03:01:13;12.00;;;8.07;;
25752;SDS011;13600;50.816;4.416;2024-02-14T03:03:39;13.60;;;8.63;;
25752;SDS011;13600;50.816;4.416;2024-02-14T03:06:06;13.43;;;7.57;;
25752;SDS011;13600;50.816;4.416;2024-02-14T03:08:32;13.48;;;8.18;;
25752;SDS011;13600;50.816;4.416;2024-02-14T03:11:03;13.95;;;8.75;;
25752;SDS011;13600;50.816;4.416;2024-02-14T03:13:30;14.48;;;8.57;;
25752;SDS011;13600;50.816;4.416;2024-02-14T03:15:56;15.90;;;8.50;;
25752;SDS011;13600;50.816;4.416;2024-02-14T03:18:23;14.32;;;7.78;;
25752;SDS011;13600;50.816;4.416;2024-02-14T03:20:49;14.93;;;7.97;;
25752;SDS011;13600;50.816;4.416;2024-02-14T03:23:21;16.73;;;8.60;;
25752;SDS011;13600;50.816;4.416;2024-02-14T03:25:47;19.50;;;8.85;;
25752;SDS011;13600;50.816;4.416;2024-02-14T03:28:15;18.50;;;8.80;;
25752;SDS011;13600;50.816;4.416;2024-02-14T03:30:46;18.10;;;9.30;;
25752;SDS011;13600;50.816;4.416;2024-02-14T03:35:57;14.27;;;8.60;;
25752;SDS011;13600;50.816;4.416;2024-02-14T03:38:33;16.75;;;9.23;;
25752;SDS011;13600;50.816;4.416;2024-02-14T03:40:58;21.35;;;10.38;;
25752;SDS011;13600;50.816;4.416;2024-02-14T03:43:32;16.90;;;9.60;;
25752;SDS011;13600;50.816;4.416;2024-02-14T03:46:00;17.30;;;9.05;;
25752;SDS011;13600;50.816;4.416;2024-02-14T03:48:26;18.25;;;10.48;;
25752;SDS011;13600;50.816;4.416;2024-02-14T03:50:52;20.42;;;10.25;;
25752;SDS011;13600;50.816;4.416;2024-02-14T03:53:19;18.98;;;10.43;;
25752;SDS011;13600;50.816;4.416;2024-02-14T03:55:44;18.40;;;10.68;;
25752;SDS011;13600;50.816;4.416;2024-02-14T03:58:10;19.40;;;10.43;;
25752;SDS011;13600;50.816;4.416;2024-02-14T04:00:37;18.20;;;10.50;;
25752;SDS011;13600;50.816;4.416;2024-02-14T04:03:04;18.77;;;10.68;;
25752;SDS011;13600;50.816;4.416;2024-02-14T04:05:32;17.63;;;10.48;;
25752;SDS011;13600;50.816;4.416;2024-02-14T04:08:05;20.40;;;10.90;;
25752;SDS011;13600;50.816;4.416;2024-02-14T04:10:42;20.35;;;11.10;;
25752;SDS011;13600;50.816;4.416;2024-02-14T04:15:34;20.10;;;11.02;;
25752;SDS011;13600;50.816;4.416;2024-02-14T04:18:00;23.15;;;11.48;;
25752;SDS011;13600;50.816;4.416;2024-02-14T04:20:27;19.90;;;11.35;;
25752;SDS011;13600;50.816;4.416;2024-02-14T04:22:53;23.13;;;11.73;;
25752;SDS011;13600;50.816;4.416;2024-02-14T04:25:19;19.27;;;11.98;;
25752;SDS011;13600;50.816;4.416;2024-02-14T04:27:45;24.40;;;12.10;;
25752;SDS011;13600;50.816;4.416;2024-02-14T04:30:16;24.38;;;11.77;;
25752;SDS011;13600;50.816;4.416;2024-02-14T04:32:45;23.35;;;12.10;;
25752;SDS011;13600;50.816;4.416;2024-02-14T04:37:40;25.88;;;13.10;;
25752;SDS011;13600;50.816;4.416;2024-02-14T04:40:08;26.63;;;13.65;;
25752;SDS011;13600;50.816;4.416;2024-02-14T04:42:35;26.73;;;12.32;;
25752;SDS011;13600;50.816;4.416;2024-02-14T04:45:02;22.98;;;12.65;;
25752;SDS011;13600;50.816;4.416;2024-02-14T04:47:29;15.73;;;11.85;;
25752;SDS011;13600;50.816;4.416;2024-02-14T04:49:55;21.48;;;12.35;;
25752;SDS011;13600;50.816;4.416;2024-02-14T04:52:21;22.52;;;12.13;;
25752;SDS011;13600;50.816;4.416;2024-02-14T04:54:49;19.23;;;11.38;;
25752;SDS011;13600;50.816;4.416;2024-02-14T04:57:15;20.63;;;11.38;;
25752;SDS011;13600;50.816;4.416;2024-02-14T04:59:40;20.40;;;11.45;;
25752;SDS011;13600;50.816;4.416;2024-02-14T05:02:12;18.95;;;11.45;;
25752;SDS011;13600;50.816;4.416;2024-02-14T05:04:38;20.08;;;11.77;;
25752;SDS011;13600;50.816;4.416;2024-02-14T05:07:04;22.42;;;12.60;;
25752;SDS011;13600;50.816;4.416;2024-02-14T05:09:30;25.35;;;12.70;;
25752;SDS011;13600;50.816;4.416;2024-02-14T05:11:56;20.58;;;12.75;;
25752;SDS011;13600;50.816;4.416;2024-02-14T05:14:21;26.85;;;13.18;;
25752;SDS011;13600;50.816;4.416;2024-02-14T05:16:47;20.10;;;12.13;;
25752;SDS011;13600;50.816;4.416;2024-02-14T05:19:13;23.33;;;13.40;;
25752;SDS011;13600;50.816;4.416;2024-02-14T05:21:39;27.63;;;13.18;;
25752;SDS011;13600;50.816;4.416;2024-02-14T05:24:04;22.95;;;13.30;;
25752;SDS011;13600;50.816;4.416;2024-02-14T05:26:31;24.30;;;13.48;;
25752;SDS011;13600;50.816;4.416;2024-02-14T05:28:57;24.27;;;13.30;;
25752;SDS011;13600;50.816;4.416;2024-02-14T05:31:24;24.73;;;13.30;;
25752;SDS011;13600;50.816;4.416;2024-02-14T05:33:49;18.33;;;13.00;;
25752;SDS011;13600;50.816;4.416;2024-02-14T05:36:15;25.35;;;13.13;;
25752;SDS011;13600;50.816;4.416;2024-02-14T05:38:42;24.50;;;12.63;;
25752;SDS011;13600;50.816;4.416;2024-02-14T05:41:08;21.30;;;11.77;;
25752;SDS011;13600;50.816;4.416;2024-02-14T05:43:35;20.75;;;11.57;;
25752;SDS011;13600;50.816;4.416;2024-02-14T05:46:01;24.52;;;12.82;;
25752;SDS011;13600;50.816;4.416;2024-02-14T05:48:26;20.67;;;11.38;;
25752;SDS011;13600;50.816;4.416;2024-02-14T05:50:52;19.27;;;11.85;;
25752;SDS011;13600;50.816;4.416;2024-02-14T05:53:18;18.83;;;11.80;;
25752;SDS011;13600;50.816;4.416;2024-02-14T05:55:43;27.35;;;12.95;;
25752;SDS011;13600;50.816;4.416;2024-02-14T05:58:09;22.67;;;12.02;;
25752;SDS011;13600;50.816;4.416;2024-02-14T06:00:35;20.52;;;11.57;;
25752;SDS011;13600;50.816;4.416;2024-02-14T06:03:00;21.45;;;12.55;;
25752;SDS011;13600;50.816;4.416;2024-02-14T06:05:28;20.10;;;12.13;;
25752;SDS011;13600;50.816;4.416;2024-02-14T06:07:53;22.50;;;11.70;;
25752;SDS011;13600;50.816;4.416;2024-02-14T06:10:22;21.63;;;12.70;;
25752;SDS011;13600;50.816;4.416;2024-02-14T06:12:50;22.92;;;11.85;;
25752;SDS011;13600;50.816;4.416;2024-02-14T06:15:16;18.17;;;11.70;;
25752;SDS011;13600;50.816;4.416;2024-02-14T06:17:42;19.20;;;11.68;;
25752;SDS011;13600;50.816;4.416;2024-02-14T06:20:08;18.33;;;11.30;;
25752;SDS011;13600;50.816;4.416;2024-02-14T06:22:34;25.63;;;11.55;;
25752;SDS011;13600;50.816;4.416;2024-02-14T06:25:00;23.42;;;12.10;;
25752;SDS011;13600;50.816;4.416;2024-02-14T06:27:25;21.63;;;11.88;;
25752;SDS011;13600;50.816;4.416;2024-02-14T06:29:52;24.58;;;12.40;;
25752;SDS011;13600;50.816;4.416;2024-02-14T06:32:18;23.35;;;11.85;;
25752;SDS011;13600;50.816;4.416;2024-02-14T06:34:45;22.25;;;11.25;;
25752;SDS011;13600;50.816;4.416;2024-02-14T06:37:10;23.73;;;11.25;;
25752;SDS011;13600;50.816;4.416;2024-02-14T06:39:36;18.88;;;11.27;;
25752;SDS011;13600;50.816;4.416;2024-02-14T06:42:02;22.00;;;11.25;;
25752;SDS011;13600;50.816;4.416;2024-02-14T06:44:27;24.33;;;11.25;;
25752;SDS011;13600;50.816;4.416;2024-02-14T06:46:53;20.35;;;11.27;;
25752;SDS011;13600;50.816;4.416;2024-02-14T06:49:19;17.90;;;10.55;;
25752;SDS011;13600;50.816;4.416;2024-02-14T06:51:45;21.40;;;10.65;;
25752;SDS011;13600;50.816;4.416;2024-02-14T06:54:11;20.13;;;10.60;;
25752;SDS011;13600;50.816;4.416;2024-02-14T06:56:39;22.83;;;11.77;;
25752;SDS011;13600;50.816;4.416;2024-02-14T06:59:05;21.70;;;11.15;;
25752;SDS011;13600;50.816;4.416;2024-02-14T07:01:31;18.80;;;11.73;;
25752;SDS011;13600;50.816;4.416;2024-02-14T07:03:57;23.88;;;12.98;;
25752;SDS011;13600;50.816;4.416;2024-02-14T07:06:23;24.90;;;12.18;;
25752;SDS011;13600;50.816;4.416;2024-02-14T07:08:50;29.25;;;13.07;;
25752;SDS011;13600;50.816;4.416;2024-02-14T07:11:16;19.88;;;11.98;;
25752;SDS011;13600;50.816;4.416;2024-02-14T07:13:42;23.58;;;12.07;;
25752;SDS011;13600;50.816;4.416;2024-02-14T07:16:07;22.58;;;11.45;;
25752;SDS011;13600;50.816;4.416;2024-02-14T07:18:33;24.83;;;12.35;;
25752;SDS011;13600;50.816;4.416;2024-02-14T07:20:59;20.90;;;11.88;;
25752;SDS011;13600;50.816;4.416;2024-02-14T07:23:26;21.13;;;12.43;;
25752;SDS011;13600;50.816;4.416;2024-02-14T07:25:53;23.13;;;11.95;;
25752;SDS011;13600;50.816;4.416;2024-02-14T07:28:19;22.67;;;12.07;;
25752;SDS011;13600;50.816;4.416;2024-02-14T07:30:44;20.48;;;11.82;;
25752;SDS011;13600;50.816;4.416;2024-02-14T07:33:10;18.10;;;12.13;;
25752;SDS011;13600;50.816;4.416;2024-02-14T07:35:38;23.38;;;11.77;;
25752;SDS011;13600;50.816;4.416;2024-02-14T07:38:04;20.63;;;11.57;;
25752;SDS011;13600;50.816;4.416;2024-02-14T07:40:31;25.05;;;12.13;;
25752;SDS011;13600;50.816;4.416;2024-02-14T07:42:58;22.02;;;11.95;;
25752;SDS011;13600;50.816;4.416;2024-02-14T07:45:23;20.92;;;11.57;;
25752;SDS011;13600;50.816;4.416;2024-02-14T07:47:49;21.25;;;11.68;;
25752;SDS011;13600;50.816;4.416;2024-02-14T07:50:15;18.65;;;11.65;;
25752;SDS011;13600;50.816;4.416;2024-02-14T07:52:42;29.25;;;11.82;;
25752;SDS011;13600;50.816;4.416;2024-02-14T07:55:10;23.30;;;11.35;;
25752;SDS011;13600;50.816;4.416;2024-02-14T07:57:40;25.20;;;11.15;;
25752;SDS011;13600;50.816;4.416;2024-02-14T08:00:07;22.85;;;11.48;;
25752;SDS011;13600;50.816;4.416;2024-02-14T08:02:33;18.98;;;10.90;;
25752;SDS011;13600;50.816;4.416;2024-02-14T08:05:00;19.67;;;10.35;;
25752;SDS011;13600;50.816;4.416;2024-02-14T08:07:26;14.30;;;10.05;;
25752;SDS011;13600;50.816;4.416;2024-02-14T08:09:51;21.67;;;10.93;;
25752;SDS011;13600;50.816;4.416;2024-02-14T08:12:17;22.00;;;11.50;;
25752;SDS011;13600;50.816;4.416;2024-02-14T08:14:43;20.13;;;11.05;;
25752;SDS011;13600;50.816;4.416;2024-02-14T08:17:09;21.17;;;11.05;;
25752;SDS011;13600;50.816;4.416;2024-02-14T08:19:34;23.75;;;11.52;;
25752;SDS011;13600;50.816;4.416;2024-02-14T08:22:00;18.83;;;10.85;;
25752;SDS011;13600;50.816;4.416;2024-02-14T08:24:27;20.27;;;11.50;;
25752;SDS011;13600;50.816;4.416;2024-02-14T08:26:53;26.42;;;12.40;;
25752;SDS011;13600;50.816;4.416;2024-02-14T08:29:20;27.00;;;11.75;;
25752;SDS011;13600;50.816;4.416;2024-02-14T08:31:46;19.60;;;11.50;;
25752;SDS011;13600;50.816;4.416;2024-02-14T08:34:13;19.55;;;11.43;;
25752;SDS011;13600;50.816;4.416;2024-02-14T08:36:40;23.63;;;12.98;;
25752;SDS011;13600;50.816;4.416;2024-02-14T08:39:07;21.73;;;11.90;;
25752;SDS011;13600;50.816;4.416;2024-02-14T08:41:35;21.42;;;12.10;;
25752;SDS011;13600;50.816;4.416;2024-02-14T08:44:06;23.42;;;12.25;;
25752;SDS011;13600;50.816;4.416;2024-02-14T08:46:32;23.48;;;13.05;;
25752;SDS011;13600;50.816;4.416;2024-02-14T08:49:00;20.10;;;12.38;;
25752;SDS011;13600;50.816;4.416;2024-02-14T08:51:27;18.70;;;12.57;;
25752;SDS011;13600;50.816;4.416;2024-02-14T08:53:53;22.35;;;12.35;;
25752;SDS011;13600;50.816;4.416;2024-02-14T08:56:22;25.30;;;13.30;;
25752;SDS011;13600;50.816;4.416;2024-02-14T08:58:48;23.83;;;13.40;;
25752;SDS011;13600;50.816;4.416;2024-02-14T09:01:14;25.98;;;13.57;;
25752;SDS011;13600;50.816;4.416;2024-02-14T09:03:43;25.60;;;13.13;;
25752;SDS011;13600;50.816;4.416;2024-02-14T09:06:16;21.63;;;13.32;;
25752;SDS011;13600;50.816;4.416;2024-02-14T09:08:46;20.30;;;13.07;;
25752;SDS011;13600;50.816;4.416;2024-02-14T09:11:12;22.40;;;13.23;;
25752;SDS011;13600;50.816;4.416;2024-02-14T09:13:38;24.98;;;13.85;;
25752;SDS011;13600;50.816;4.416;2024-02-14T09:16:07;23.13;;;13.23;;
25752;SDS011;13600;50.816;4.416;2024-02-14T09:18:34;23.67;;;13.52;;
25752;SDS011;13600;50.816;4.416;2024-02-14T09:21:00;23.85;;;12.85;;
25752;SDS011;13600;50.816;4.416;2024-02-14T09:23:28;22.67;;;13.40;;
25752;SDS011;13600;50.816;4.416;2024-02-14T09:25:55;23.92;;;12.90;;
25752;SDS011;13600;50.816;4.416;2024-02-14T09:28:22;20.95;;;12.30;;
25752;SDS011;13600;50.816;4.416;2024-02-14T09:30:48;18.40;;;12.73;;
25752;SDS011;13600;50.816;4.416;2024-02-14T09:33:13;17.70;;;11.43;;
25752;SDS011;13600;50.816;4.416;2024-02-14T09:35:39;16.77;;;10.90;;
25752;SDS011;13600;50.816;4.416;2024-02-14T09:38:12;18.65;;;10.43;;
25752;SDS011;13600;50.816;4.416;2024-02-14T09:40:40;19.00;;;11.15;;
25752;SDS011;13600;50.816;4.416;2024-02-14T09:43:13;22.65;;;11.30;;
25752;SDS011;13600;50.816;4.416;2024-02-14T09:45:58;15.60;;;10.20;;
25752;SDS011;13600;50.816;4.416;2024-02-14T09:48:25;17.52;;;10.40;;
25752;SDS011;13600;50.816;4.416;2024-02-14T09:50:55;13.50;;;9.05;;
25752;SDS011;13600;50.816;4.416;2024-02-14T09:53:26;14.27;;;9.20;;
25752;SDS011;13600;50.816;4.416;2024-02-14T09:55:55;13.50;;;9.10;;
25752;SDS011;13600;50.816;4.416;2024-02-14T09:58:23;18.35;;;9.43;;
25752;SDS011;13600;50.816;4.416;2024-02-14T10:00:49;13.88;;;9.13;;
25752;SDS011;13600;50.816;4.416;2024-02-14T10:03:16;14.52;;;9.13;;
25752;SDS011;13600;50.816;4.416;2024-02-14T10:05:42;14.23;;;9.35;;
25752;SDS011;13600;50.816;4.416;2024-02-14T10:08:07;16.08;;;9.25;;
25752;SDS011;13600;50.816;4.416;2024-02-14T10:10:34;14.48;;;8.63;;
25752;SDS011;13600;50.816;4.416;2024-02-14T10:13:00;14.15;;;8.25;;
25752;SDS011;13600;50.816;4.416;2024-02-14T10:15:28;12.23;;;8.13;;
25752;SDS011;13600;50.816;4.416;2024-02-14T10:17:57;10.68;;;7.47;;
25752;SDS011;13600;50.816;4.416;2024-02-14T10:20:24;12.50;;;7.50;;
25752;SDS011;13600;50.816;4.416;2024-02-14T10:22:50;13.02;;;7.68;;
25752;SDS011;13600;50.816;4.416;2024-02-14T10:25:16;11.73;;;7.50;;
25752;SDS011;13600;50.816;4.416;2024-02-14T10:27:44;10.43;;;7.15;;
25752;SDS011;13600;50.816;4.416;2024-02-14T10:30:13;10.85;;;7.00;;
25752;SDS011;13600;50.816;4.416;2024-02-14T10:32:40;10.68;;;6.70;;
25752;SDS011;13600;50.816;4.416;2024-02-14T10:35:11;9.60;;;6.18;;
25752;SDS011;13600;50.816;4.416;2024-02-14T10:37:38;11.18;;;6.57;;
25752;SDS011;13600;50.816;4.416;2024-02-14T10:40:10;10.75;;;5.70;;
25752;SDS011;13600;50.816;4.416;2024-02-14T10:42:36;8.52;;;6.07;;
25752;SDS011;13600;50.816;4.416;2024-02-14T10:45:05;10.32;;;6.13;;
25752;SDS011;13600;50.816;4.416;2024-02-14T10:47:32;9.50;;;6.07;;
25752;SDS011;13600;50.816;4.416;2024-02-14T10:50:03;9.50;;;5.68;;
25752;SDS011;13600;50.816;4.416;2024-02-14T10:52:30;6.68;;;5.00;;
25752;SDS011;13600;50.816;4.416;2024-02-14T10:55:03;11.90;;;5.10;;
25752;SDS011;13600;50.816;4.416;2024-02-14T10:57:37;6.97;;;4.85;;
25752;SDS011;13600;50.816;4.416;2024-02-14T11:02:52;5.57;;;4.03;;
25752;SDS011;13600;50.816;4.416;2024-02-14T11:05:19;6.75;;;4.32;;
25752;SDS011;13600;50.816;4.416;2024-02-14T11:07:51;6.40;;;3.45;;
25752;SDS011;13600;50.816;4.416;2024-02-14T11:10:22;5.97;;;3.88;;
25752;SDS011;13600;50.816;4.416;2024-02-14T11:12:54;8.43;;;3.83;;
25752;SDS011;13600;50.816;4.416;2024-02-14T11:15:21;7.18;;;4.00;;
25752;SDS011;13600;50.816;4.416;2024-02-14T11:18:03;5.95;;;3.92;;
25752;SDS011;13600;50.816;4.416;2024-02-14T11:20:34;6.90;;;4.20;;
25752;SDS011;13600;50.816;4.416;2024-02-14T11:25:37;8.65;;;4.28;;
25752;SDS011;13600;50.816;4.416;2024-02-14T11:28:13;8.57;;;5.03;;
25752;SDS011;13600;50.816;4.416;2024-02-14T11:30:39;9.52;;;4.78;;
25752;SDS011;13600;50.816;4.416;2024-02-14T11:35:43;11.68;;;5.32;;
25752;SDS011;13600;50.816;4.416;2024-02-14T11:38:10;9.60;;;5.18;;
25752;SDS011;13600;50.816;4.416;2024-02-14T11:40:36;8.05;;;5.10;;
25752;SDS011;13600;50.816;4.416;2024-02-14T11:43:12;10.02;;;5.20;;
25752;SDS011;13600;50.816;4.416;2024-02-14T11:45:48;12.55;;;5.43;;
25752;SDS011;13600;50.816;4.416;2024-02-14T11:48:20;8.27;;;5.43;;
25752;SDS011;13600;50.816;4.416;2024-02-14T11:50:46;10.15;;;5.45;;
25752;SDS011;13600;50.816;4.416;2024-02-14T11:53:15;12.15;;;5.70;;
25752;SDS011;13600;50.816;4.416;2024-02-14T11:55:43;10.70;;;6.03;;
25752;SDS011;13600;50.816;4.416;2024-02-14T11:58:09;14.50;;;6.35;;
25752;SDS011;13600;50.816;4.416;2024-02-14T12:00:45;13.38;;;5.82;;
25752;SDS011;13600;50.816;4.416;2024-02-14T12:03:22;10.00;;;5.65;;
25752;SDS011;13600;50.816;4.416;2024-02-14T12:05:52;12.77;;;6.25;;
25752;SDS011;13600;50.816;4.416;2024-02-14T12:08:19;14.95;;;6.82;;
25752;SDS011;13600;50.816;4.416;2024-02-14T12:10:46;13.73;;;7.05;;
25752;SDS011;13600;50.816;4.416;2024-02-14T12:13:14;13.15;;;7.38;;
25752;SDS011;13600;50.816;4.416;2024-02-14T12:15:44;14.18;;;7.32;;
25752;SDS011;13600;50.816;4.416;2024-02-14T12:18:10;13.38;;;6.90;;
25752;SDS011;13600;50.816;4.416;2024-02-14T12:20:37;18.25;;;7.63;;
25752;SDS011;13600;50.816;4.416;2024-02-14T12:23:04;14.45;;;7.30;;
25752;SDS011;13600;50.816;4.416;2024-02-14T12:25:30;15.82;;;8.07;;
25752;SDS011;13600;50.816;4.416;2024-02-14T12:27:58;15.15;;;7.78;;
25752;SDS011;13600;50.816;4.416;2024-02-14T12:30:33;18.65;;;8.27;;
25752;SDS011;13600;50.816;4.416;2024-02-14T12:33:16;16.80;;;7.63;;
25752;SDS011;13600;50.816;4.416;2024-02-14T12:35:45;14.00;;;7.60;;
25752;SDS011;13600;50.816;4.416;2024-02-14T12:38:13;18.40;;;7.47;;
25752;SDS011;13600;50.816;4.416;2024-02-14T12:40:40;14.55;;;7.57;;
25752;SDS011;13600;50.816;4.416;2024-02-14T12:43:07;20.23;;;8.25;;
25752;SDS011;13600;50.816;4.416;2024-02-14T12:45:33;16.05;;;7.80;;
25752;SDS011;13600;50.816;4.416;2024-02-14T12:48:03;14.77;;;7.38;;
25752;SDS011;13600;50.816;4.416;2024-02-14T12:50:30;18.08;;;7.20;;
25752;SDS011;13600;50.816;4.416;2024-02-14T12:52:57;16.08;;;7.07;;
25752;SDS011;13600;50.816;4.416;2024-02-14T12:55:23;18.58;;;7.50;;
25752;SDS011;13600;50.816;4.416;2024-02-14T12:57:51;16.02;;;7.53;;
25752;SDS011;13600;50.816;4.416;2024-02-14T13:00:19;15.73;;;6.82;;
25752;SDS011;13600;50.816;4.416;2024-02-14T13:02:46;16.73;;;6.50;;
25752;SDS011;13600;50.816;4.416;2024-02-14T13:05:12;11.15;;;5.78;;
25752;SDS011;13600;50.816;4.416;2024-02-14T13:07:38;11.40;;;5.65;;
25752;SDS011;13600;50.816;4.416;2024-02-14T13:10:04;11.77;;;5.65;;
25752;SDS011;13600;50.816;4.416;2024-02-14T13:12:31;11.48;;;5.40;;
25752;SDS011;13600;50.816;4.416;2024-02-14T13:14:56;12.30;;;5.85;;
25752;SDS011;13600;50.816;4.416;2024-02-14T13:17:23;13.27;;;5.35;;
25752;SDS011;13600;50.816;4.416;2024-02-14T13:19:50;12.30;;;5.68;;
25752;SDS011;13600;50.816;4.416;2024-02-14T13:22:21;9.27;;;4.85;;
25752;SDS011;13600;50.816;4.416;2024-02-14T13:24:49;13.32;;;5.45;;
25752;SDS011;13600;50.816;4.416;2024-02-14T13:27:15;10.68;;;5.43;;
25752;SDS011;13600;50.816;4.416;2024-02-14T13:29:43;12.60;;;5.45;;
25752;SDS011;13600;50.816;4.416;2024-02-14T13:32:08;11.80;;;5.18;;
25752;SDS011;13600;50.816;4.416;2024-02-14T13:34:34;8.68;;;4.70;;
25752;SDS011;13600;50.816;4.416;2024-02-14T13:37:01;15.18;;;5.55;;
25752;SDS011;13600;50.816;4.416;2024-02-14T13:39:27;11.20;;;4.75;;
25752;SDS011;13600;50.816;4.416;2024-02-14T13:41:53;9.13;;;4.57;;
25752;SDS011;13600;50.816;4.416;2024-02-14T13:44:20;10.18;;;4.57;;
25752;SDS011;13600;50.816;4.416;2024-02-14T13:46:46;10.50;;;4.38;;
25752;SDS011;13600;50.816;4.416;2024-02-14T13:49:11;10.50;;;4.63;;
25752;SDS011;13600;50.816;4.416;2024-02-14T13:51:42;10.18;;;4.75;;
25752;SDS011;13600;50.816;4.416;2024-02-14T13:54:07;11.57;;;4.05;;
25752;SDS011;13600;50.816;4.416;2024-02-14T13:56:34;9.10;;;4.43;;
25752;SDS011;13600;50.816;4.416;2024-02-14T13:59:00;13.80;;;4.22;;
25752;SDS011;13600;50.816;4.416;2024-02-14T14:01:27;7.55;;;4.10;;
25752;SDS011;13600;50.816;4.416;2024-02-14T14:03:53;8.18;;;3.83;;
25752;SDS011;13600;50.816;4.416;2024-02-14T14:06:21;9.50;;;4.00;;
25752;SDS011;13600;50.816;4.416;2024-02-14T14:08:49;9.63;;;4.13;;
25752;SDS011;13600;50.816;4.416;2024-02-14T14:11:15;12.43;;;4.22;;
25752;SDS011;13600;50.816;4.416;2024-02-14T14:13:42;8.40;;;3.83;;
25752;SDS011;13600;50.816;4.416;2024-02-14T14:16:09;10.02;;;4.00;;
25752;SDS011;13600;50.816;4.416;2024-02-14T14:18:36;6.20;;;3.40;;
25752;SDS011;13600;50.816;4.416;2024-02-14T14:21:04;8.18;;;3.63;;
25752;SDS011;13600;50.816;4.416;2024-02-14T14:23:36;8.95;;;3.90;;
25752;SDS011;13600;50.816;4.416;2024-02-14T14:26:01;5.20;;;3.15;;
25752;SDS011;13600;50.816;4.416;2024-02-14T14:28:27;6.65;;;3.45;;
25752;SDS011;13600;50.816;4.416;2024-02-14T14:30:54;7.75;;;3.70;;
25752;SDS011;13600;50.816;4.416;2024-02-14T14:33:22;6.00;;;3.30;;
25752;SDS011;13600;50.816;4.416;2024-02-14T14:35:48;9.00;;;3.75;;
25752;SDS011;13600;50.816;4.416;2024-02-14T14:38:16;8.05;;;3.60;;
25752;SDS011;13600;50.816;4.416;2024-02-14T14:40:48;8.05;;;3.60;;
25752;SDS011;13600;50.816;4.416;2024-02-14T14:43:14;8.10;;;3.10;;
25752;SDS011;13600;50.816;4.416;2024-02-14T14:45:44;7.70;;;4.30;;